Owensboro Daviess County Airport Owensboro US
ICAO: KOWB
IATA: OWB
Category: Medium
Scheduled Services: Yes

Elevation: 407 ft
TransAlt. 18000 ft.

Airport Communications:
EVANSVILLE APP/DEP:126.4
CTAF:120.7
GND:121.7
LOUISVILLE RDO:108.6
TWR:120.7
UNICOM:122.95

KOWB Zoom In..

If you have problems with the map follow the link
https://www.worldairports.se/pages/airport.php?
ICAO=KOWB

Runways:

(A) RW 06 length 5000 ft width 100 ft
---- / hdg 56

(B) RW 18 length 8000 ft width 150 ft
---- / hdg 182

(C) RW 24 length 5000 ft width 100 ft
---- / hdg 236

(D) RW 36 length 8000 ft width 150 ft
ILS 111.50 / hdg 2

Location; KOWB
Day. 08 / Time. 11.56 Zulu
* Altimeter: 30.17
* Temperature: 03° c. 37.4°f.
* Wind from: 120° Speed 04 kn.
Dewpoint: 02° c.
Visibility: 8 Statute Miles.
Clouds: Overcast 4900 ft.

KOWB 081156Z 12004KT 8SM OVC049 03/02 A3017 RMK AO2 SLP219 T00280022 10028 20011 58005


Wind From 120°
Speed 04 kn.

 
 
jpsmedia worldairports.se 2019   terms of use